Time;durP1;ratioP1;P1;durP2;ratioP2;P2;SDS_P1;SDS_P2;PMS_P1;PMS_P2;Temp;Humidity;BMP_temperature;BMP_pressure;BME280_temperature;BME280_humidity;BME280_pressure;Samples;Min_cycle;Max_cycle;Signal;HPM_P1;HPM_P2
2023/10/26 00:00:24;;;;;;;27.73;13.50;;;;;;;8.94;100.00;99508.75;4933787;29;20090;-67
2023/10/26 00:02:49;;;;;;;27.92;13.82;;;;;;;8.96;100.00;99511.22;4933381;29;20042;-66
2023/10/26 00:05:14;;;;;;;27.75;13.48;;;;;;;8.94;100.00;99511.53;4938651;29;20034;-66
2023/10/26 00:07:40;;;;;;;26.98;13.80;;;;;;;8.95;100.00;99512.34;4952360;28;20051;-67
2023/10/26 00:10:06;;;;;;;27.23;13.50;;;;;;;8.92;100.00;99518.50;4954065;28;20027;-67
2023/10/26 00:12:31;;;;;;;25.33;12.73;;;;;;;8.89;100.00;99515.25;4936038;28;20039;-67
2023/10/26 00:14:57;;;;;;;25.05;12.32;;;;;;;8.86;100.00;99515.94;4943350;28;20036;-68
2023/10/26 00:17:22;;;;;;;24.85;11.98;;;;;;;8.86;100.00;99523.38;4938784;29;20081;-69
2023/10/26 00:19:47;;;;;;;25.60;12.30;;;;;;;8.88;100.00;99530.19;4948834;28;20448;-69
2023/10/26 00:22:13;;;;;;;25.52;11.80;;;;;;;8.94;100.00;99539.09;4943014;29;20054;-68
2023/10/26 00:24:39;;;;;;;26.55;12.55;;;;;;;8.96;100.00;99534.06;4952130;28;20470;-69
2023/10/26 00:27:04;;;;;;;26.52;13.00;;;;;;;9.02;100.00;99545.75;4940988;29;20072;-70
2023/10/26 00:29:30;;;;;;;26.40;13.38;;;;;;;9.03;100.00;99552.91;4939373;29;20031;-69
2023/10/26 00:31:55;;;;;;;26.38;12.88;;;;;;;9.01;100.00;99552.41;4932304;29;20186;-68
2023/10/26 00:34:20;;;;;;;26.48;12.40;;;;;;;9.02;100.00;99552.06;4932538;29;20046;-68
2023/10/26 00:36:46;;;;;;;26.42;13.00;;;;;;;9.02;100.00;99557.59;4939895;28;20403;-67
2023/10/26 00:39:11;;;;;;;25.77;12.68;;;;;;;9.03;100.00;99553.69;4943769;28;20065;-69
2023/10/26 00:41:37;;;;;;;26.33;13.15;;;;;;;8.95;100.00;99553.72;4936243;28;20134;-68
2023/10/26 00:44:03;;;;;;;26.05;12.18;;;;;;;8.98;100.00;99550.28;4950924;28;20094;-67
2023/10/26 00:46:29;;;;;;;25.55;12.43;;;;;;;8.98;100.00;99559.41;4951200;28;20444;-68
2023/10/26 00:48:54;;;;;;;25.70;11.95;;;;;;;9.00;100.00;99554.38;4942235;28;20035;-68
2023/10/26 00:51:20;;;;;;;25.42;12.50;;;;;;;8.98;100.00;99553.03;4948100;29;20028;-68
2023/10/26 00:53:46;;;;;;;26.60;13.23;;;;;;;8.99;100.00;99558.25;4933298;28;20110;-68
2023/10/26 00:56:14;;;;;;;26.65;12.85;;;;;;;9.00;100.00;99559.88;4931973;29;20114;-68
2023/10/26 00:58:39;;;;;;;26.40;13.30;;;;;;;9.00;100.00;99561.81;4944616;28;20081;-67
2023/10/26 01:01:05;;;;;;;26.50;12.65;;;;;;;8.98;100.00;99567.66;4945667;29;20060;-68
2023/10/26 01:03:32;;;;;;;26.98;12.55;;;;;;;9.01;100.00;99566.19;4948617;28;20035;-68
2023/10/26 01:05:58;;;;;;;27.08;12.88;;;;;;;8.99;100.00;99571.22;4950230;29;20034;-67
2023/10/26 01:08:24;;;;;;;26.92;12.00;;;;;;;9.01;100.00;99577.22;4950522;28;20078;-67
2023/10/26 01:10:49;;;;;;;26.67;12.02;;;;;;;9.00;100.00;99576.44;4938449;28;20039;-67
2023/10/26 01:13:16;;;;;;;27.83;13.05;;;;;;;8.98;100.00;99581.47;4968253;28;20064;-67
2023/10/26 01:15:41;;;;;;;27.52;13.07;;;;;;;8.98;100.00;99583.38;4940262;29;20036;-67
2023/10/26 01:18:07;;;;;;;25.17;11.68;;;;;;;8.91;100.00;99578.41;4946349;29;20110;-65
2023/10/26 01:20:32;;;;;;;25.67;12.50;;;;;;;8.89;100.00;99578.69;4941127;29;20035;-68
2023/10/26 01:22:57;;;;;;;27.08;12.38;;;;;;;8.84;100.00;99578.88;4943147;29;20043;-67
2023/10/26 01:25:23;;;;;;;26.85;12.45;;;;;;;8.84;100.00;99595.44;4935402;28;20071;-67
2023/10/26 01:27:48;;;;;;;26.38;13.13;;;;;;;8.79;100.00;99592.03;4933920;28;20091;-68
2023/10/26 01:30:13;;;;;;;27.23;12.98;;;;;;;8.76;100.00;99592.66;4930368;29;20070;-68
2023/10/26 01:32:39;;;;;;;28.67;12.75;;;;;;;8.70;100.00;99590.06;4946413;28;20077;-67
2023/10/26 01:35:04;;;;;;;27.65;13.55;;;;;;;8.64;100.00;99588.63;4941442;29;20027;-68
2023/10/26 01:37:30;;;;;;;27.55;13.93;;;;;;;8.61;100.00;99591.19;4951312;28;20035;-67
2023/10/26 01:39:55;;;;;;;29.58;14.68;;;;;;;8.56;100.00;99593.00;4935960;29;20034;-68
2023/10/26 01:42:20;;;;;;;28.17;13.27;;;;;;;8.47;100.00;99589.41;4942211;28;20046;-68
2023/10/26 01:44:45;;;;;;;28.55;14.35;;;;;;;8.39;100.00;99579.16;4943442;29;20038;-68
2023/10/26 01:47:12;;;;;;;30.02;13.40;;;;;;;8.38;100.00;99577.53;4950625;29;20036;-68
2023/10/26 01:49:38;;;;;;;27.75;12.95;;;;;;;8.37;100.00;99576.72;4938733;29;20020;-67
2023/10/26 01:52:03;;;;;;;28.27;13.57;;;;;;;8.30;100.00;99572.84;4931919;29;20526;-68
2023/10/26 01:54:29;;;;;;;27.73;13.05;;;;;;;8.30;100.00;99572.84;4933934;28;20066;-68
2023/10/26 01:56:54;;;;;;;27.33;13.32;;;;;;;8.25;100.00;99569.09;4950842;28;20407;-67
2023/10/26 01:59:19;;;;;;;28.27;13.45;;;;;;;8.27;100.00;99588.03;4941177;29;20031;-67
2023/10/26 02:01:44;;;;;;;30.52;13.95;;;;;;;8.24;100.00;99583.19;4950438;28;20138;-67
2023/10/26 02:04:10;;;;;;;29.02;13.02;;;;;;;8.21;100.00;99589.34;4964210;28;20027;-67
2023/10/26 02:06:36;;;;;;;28.40;13.60;;;;;;;8.16;100.00;99571.00;4954203;29;20031;-67
2023/10/26 02:09:02;;;;;;;28.92;13.82;;;;;;;8.16;100.00;99579.28;4937164;28;20062;-66
2023/10/26 02:11:27;;;;;;;29.50;14.18;;;;;;;8.12;100.00;99579.13;4936193;28;20114;-66
2023/10/26 02:13:52;;;;;;;27.80;13.32;;;;;;;8.10;100.00;99569.56;4944068;29;20039;-67
2023/10/26 02:16:20;;;;;;;28.60;13.80;;;;;;;8.10;100.00;99572.31;4948727;28;20036;-67
2023/10/26 02:18:45;;;;;;;29.95;14.48;;;;;;;8.06;100.00;99576.81;4947188;28;20118;-67
2023/10/26 02:21:11;;;;;;;30.17;14.18;;;;;;;8.06;100.00;99579.59;4941739;28;20035;-67
2023/10/26 02:23:38;;;;;;;29.35;14.50;;;;;;;8.03;100.00;99574.72;4953960;28;20038;-67
2023/10/26 02:26:03;;;;;;;33.30;15.02;;;;;;;7.99;100.00;99580.03;4951271;28;20035;-67
2023/10/26 02:28:29;;;;;;;29.35;15.20;;;;;;;8.01;100.00;99580.53;4954800;28;20027;-67
2023/10/26 02:30:54;;;;;;;30.33;14.52;;;;;;;8.00;100.00;99578.91;4972984;28;20034;-67
2023/10/26 02:33:19;;;;;;;30.90;15.23;;;;;;;7.96;100.00;99575.19;4942444;28;20392;-68
2023/10/26 02:35:44;;;;;;;30.20;15.10;;;;;;;7.93;100.00;99573.91;4954233;29;20035;-67
2023/10/26 02:38:10;;;;;;;31.77;16.30;;;;;;;7.90;100.00;99582.78;4958983;28;20388;-67
2023/10/26 02:40:36;;;;;;;29.48;15.18;;;;;;;7.91;100.00;99575.31;4936613;28;20447;-67
2023/10/26 02:43:02;;;;;;;31.77;15.35;;;;;;;7.88;100.00;99576.78;4949398;28;20119;-68
2023/10/26 02:45:27;;;;;;;31.08;15.60;;;;;;;7.86;100.00;99575.47;4946039;29;20106;-68
2023/10/26 02:47:52;;;;;;;30.83;15.48;;;;;;;7.85;100.00;99584.88;4951363;29;20058;-67
2023/10/26 02:50:17;;;;;;;29.27;14.40;;;;;;;7.80;100.00;99580.31;4957088;28;20028;-67
2023/10/26 02:52:43;;;;;;;32.58;15.10;;;;;;;7.78;100.00;99583.41;4966390;28;20721;-66
2023/10/26 02:55:08;;;;;;;31.80;16.25;;;;;;;7.73;100.00;99582.72;4939187;29;20043;-67
2023/10/26 02:57:33;;;;;;;30.92;15.40;;;;;;;7.69;100.00;99573.47;4951826;29;20031;-68
2023/10/26 02:59:58;;;;;;;32.97;15.65;;;;;;;7.69;100.00;99574.31;4942633;28;20039;-66
2023/10/26 03:02:24;;;;;;;29.75;15.05;;;;;;;7.69;100.00;99573.47;4934397;29;20046;-66
2023/10/26 03:04:49;;;;;;;31.48;15.10;;;;;;;7.69;100.00;99577.06;4947607;28;20027;-67
2023/10/26 03:07:22;;;;;;;31.13;15.02;;;;;;;7.71;100.00;99582.22;4948513;28;20055;-67
2023/10/26 03:09:47;;;;;;;31.45;15.57;;;;;;;7.70;100.00;99583.34;4936017;28;20043;-66
2023/10/26 03:12:13;;;;;;;32.45;15.93;;;;;;;7.71;100.00;99584.97;4933297;29;20507;-67
2023/10/26 03:14:38;;;;;;;32.65;17.08;;;;;;;7.69;100.00;99578.97;4934435;29;20054;-67
2023/10/26 03:17:04;;;;;;;32.03;15.73;;;;;;;7.66;100.00;99577.69;4937693;28;20038;-67
2023/10/26 03:19:29;;;;;;;31.70;15.27;;;;;;;7.59;100.00;99566.31;4934295;29;20074;-67
2023/10/26 03:21:54;;;;;;;31.35;15.18;;;;;;;7.51;100.00;99559.66;4934725;29;20027;-66
2023/10/26 03:24:19;;;;;;;30.50;14.45;;;;;;;7.44;100.00;99562.84;4942353;29;20120;-66
2023/10/26 03:26:45;;;;;;;30.02;15.02;;;;;;;7.41;100.00;99559.91;4946535;28;20473;-66
2023/10/26 03:29:10;;;;;;;30.02;14.35;;;;;;;7.38;100.00;99555.88;4946385;28;20062;-67
2023/10/26 03:31:36;;;;;;;31.48;15.13;;;;;;;7.36;100.00;99552.63;4933972;29;20070;-67
2023/10/26 03:34:01;;;;;;;30.05;15.10;;;;;;;7.32;100.00;99557.13;4936447;28;20043;-66
2023/10/26 03:36:27;;;;;;;32.00;15.23;;;;;;;7.29;100.00;99561.31;4933558;29;20399;-67
2023/10/26 03:38:52;;;;;;;30.92;15.52;;;;;;;7.27;100.00;99568.25;4941515;28;20065;-66
2023/10/26 03:41:18;;;;;;;30.80;15.13;;;;;;;7.21;100.00;99569.53;4952640;28;20027;-66
2023/10/26 03:43:44;;;;;;;30.90;15.25;;;;;;;7.15;100.00;99571.59;4944372;28;20475;-67
2023/10/26 03:46:09;;;;;;;29.98;13.95;;;;;;;7.15;100.00;99571.59;4933173;29;20038;-67
2023/10/26 03:48:35;;;;;;;31.65;14.43;;;;;;;7.15;100.00;99566.09;4933084;29;20031;-67
2023/10/26 03:51:01;;;;;;;34.55;15.90;;;;;;;7.15;100.00;99575.16;4962734;28;20046;-67
2023/10/26 03:53:27;;;;;;;31.67;14.73;;;;;;;7.13;100.00;99576.59;4971779;28;20023;-67
2023/10/26 03:55:52;;;;;;;32.25;15.57;;;;;;;7.10;100.00;99575.28;4940732;28;20042;-67
2023/10/26 03:58:18;;;;;;;30.45;14.80;;;;;;;7.06;100.00;99571.53;4933016;29;20498;-67
2023/10/26 04:00:43;;;;;;;30.98;15.05;;;;;;;7.05;100.00;99564.41;4948539;28;20403;-67
2023/10/26 04:03:08;;;;;;;32.88;15.68;;;;;;;6.99;100.00;99565.66;4952011;28;20109;-67
2023/10/26 04:05:34;;;;;;;29.45;14.23;;;;;;;6.94;100.00;99557.56;4936887;29;20061;-67
2023/10/26 04:08:02;;;;;;;31.45;15.00;;;;;;;6.88;100.00;99551.38;4932688;29;20175;-67
2023/10/26 04:10:28;;;;;;;30.02;14.63;;;;;;;6.85;100.00;99552.00;4933451;29;20039;-66
2023/10/26 04:12:53;;;;;;;30.00;13.98;;;;;;;6.83;100.00;99546.81;4932899;29;20968;-66
2023/10/26 04:15:19;;;;;;;30.80;14.10;;;;;;;6.81;100.00;99543.56;4932946;29;20059;-66
2023/10/26 04:17:44;;;;;;;30.15;14.48;;;;;;;6.81;100.00;99556.47;4953676;28;20042;-67
2023/10/26 04:20:10;;;;;;;30.13;14.40;;;;;;;6.78;100.00;99549.69;4939873;28;20419;-67
2023/10/26 04:22:35;;;;;;;30.60;14.20;;;;;;;6.75;100.00;99539.31;4937845;28;20498;-67
2023/10/26 04:25:01;;;;;;;30.55;14.20;;;;;;;6.66;100.00;99539.25;4932414;28;20027;-67
2023/10/26 04:27:26;;;;;;;30.30;14.32;;;;;;;6.63;100.00;99536.31;4937318;29;20435;-67
2023/10/26 04:29:51;;;;;;;28.75;13.13;;;;;;;6.61;100.00;99542.13;4942628;28;20065;-67
2023/10/26 04:32:17;;;;;;;31.55;14.00;;;;;;;6.59;100.00;99547.13;4948767;28;20035;-68
2023/10/26 04:34:44;;;;;;;31.23;14.57;;;;;;;6.59;100.00;99546.28;4938025;29;20500;-67
2023/10/26 04:37:12;;;;;;;30.88;14.02;;;;;;;6.57;100.00;99546.63;4931908;29;20404;-67
2023/10/26 04:39:41;;;;;;;38.60;15.65;;;;;;;6.52;100.00;99542.06;4932155;29;20146;-67
2023/10/26 04:42:06;;;;;;;32.63;15.18;;;;;;;6.54;100.00;99539.81;4932140;29;20035;-67
2023/10/26 04:44:32;;;;;;;46.28;16.48;;;;;;;6.54;100.00;99537.06;4937193;29;20043;-66
2023/10/26 04:46:57;;;;;;;36.25;15.35;;;;;;;6.55;100.00;99546.94;4932058;29;20023;-67
2023/10/26 04:49:23;;;;;;;34.35;15.23;;;;;;;6.51;100.00;99539.63;4939190;28;20035;-66
2023/10/26 04:51:48;;;;;;;36.85;15.23;;;;;;;6.52;100.00;99543.97;4933977;29;20028;-67
2023/10/26 04:54:13;;;;;;;36.97;15.40;;;;;;;6.52;100.00;99542.06;4939561;28;20042;-67
2023/10/26 04:56:38;;;;;;;43.78;16.38;;;;;;;6.52;100.00;99542.06;4943501;29;20028;-67
2023/10/26 04:59:04;;;;;;;63.05;18.40;;;;;;;6.55;100.00;99537.88;4934148;29;20094;-67
2023/10/26 05:01:29;;;;;;;50.70;16.27;;;;;;;6.55;100.00;99535.13;4957707;28;20042;-68
2023/10/26 05:03:54;;;;;;;42.83;14.65;;;;;;;6.59;100.00;99543.53;4964098;28;20462;-66
2023/10/26 05:06:20;;;;;;;50.85;15.98;;;;;;;6.59;100.00;99540.81;4961129;28;20092;-67
2023/10/26 05:08:46;;;;;;;39.33;14.32;;;;;;;6.62;100.00;99535.50;4932109;28;20066;-68
2023/10/26 05:11:11;;;;;;;56.55;14.68;;;;;;;6.62;100.00;99543.72;4944535;29;20398;-66
2023/10/26 05:13:37;;;;;;;58.47;13.63;;;;;;;6.63;100.00;99545.34;4943601;29;20046;-66
2023/10/26 05:16:03;;;;;;;57.75;13.82;;;;;;;6.66;100.00;99553.00;4949366;29;20050;-66
2023/10/26 05:18:28;;;;;;;78.32;14.27;;;;;;;6.63;100.00;99550.06;4949573;28;20051;-66
2023/10/26 05:20:55;;;;;;;49.65;12.30;;;;;;;6.67;100.00;99551.03;4950523;28;20043;-66
2023/10/26 05:23:21;;;;;;;65.63;11.88;;;;;;;6.67;100.00;99543.63;4949459;28;20115;-66
2023/10/26 05:25:48;;;;;;;56.60;11.63;;;;;;;6.65;100.00;99543.13;4942559;28;20429;-67
2023/10/26 05:28:13;;;;;;;75.68;12.90;;;;;;;6.65;100.00;99539.56;4944392;29;20066;-66
2023/10/26 05:30:38;;;;;;;57.88;13.23;;;;;;;6.66;100.00;99536.50;4950781;29;20150;-66
2023/10/26 05:33:04;;;;;;;84.22;16.35;;;;;;;6.61;100.00;99536.63;4950690;29;20074;-66
2023/10/26 05:35:29;;;;;;;47.33;14.65;;;;;;;6.59;100.00;99538.06;4954256;28;20483;-65
2023/10/26 05:37:55;;;;;;;60.05;13.15;;;;;;;6.58;100.00;99533.69;4952487;28;20031;-65
2023/10/26 05:40:20;;;;;;;44.55;11.02;;;;;;;6.55;100.00;99535.13;4947386;28;20138;-65
2023/10/26 05:42:45;;;;;;;39.17;11.52;;;;;;;6.51;100.00;99540.44;4934645;29;20036;-64
2023/10/26 05:45:11;;;;;;;34.58;10.93;;;;;;;6.55;100.00;99538.69;4936788;29;20042;-67
2023/10/26 05:47:36;;;;;;;33.55;11.77;;;;;;;6.58;100.00;99540.00;4934947;29;20044;-66
2023/10/26 05:50:01;;;;;;;33.65;10.95;;;;;;;6.58;100.00;99531.75;4936115;29;20427;-65
2023/10/26 05:52:27;;;;;;;31.58;10.07;;;;;;;6.58;100.00;99534.50;4934562;29;20099;-64
2023/10/26 05:54:53;;;;;;;29.70;10.15;;;;;;;6.59;100.00;99535.31;4950600;29;20046;-66
2023/10/26 05:57:19;;;;;;;26.70;10.00;;;;;;;6.58;100.00;99537.25;4952343;28;20035;-67
2023/10/26 05:59:44;;;;;;;26.88;9.90;;;;;;;6.63;100.00;99544.56;4953442;29;20086;-65
2023/10/26 06:02:09;;;;;;;25.02;9.68;;;;;;;6.65;100.00;99545.06;4949082;29;20111;-66
2023/10/26 06:04:35;;;;;;;26.52;9.93;;;;;;;6.64;100.00;99537.94;4936708;29;20035;-65
2023/10/26 06:07:01;;;;;;;31.23;10.27;;;;;;;6.62;100.00;99531.94;4940775;29;20035;-66
2023/10/26 06:09:26;;;;;;;28.83;9.68;;;;;;;6.59;100.00;99530.63;4934520;29;20511;-66
2023/10/26 06:11:52;;;;;;;25.80;9.80;;;;;;;6.58;100.00;99529.00;4937190;29;20031;-66
2023/10/26 06:14:17;;;;;;;25.52;10.07;;;;;;;6.55;100.00;99521.38;4936305;29;20040;-66
2023/10/26 06:16:42;;;;;;;39.03;16.75;;;;;;;6.51;100.00;99517.66;4934078;29;20036;-66
2023/10/26 06:19:08;;;;;;;34.83;15.27;;;;;;;6.49;100.00;99520.69;4934027;29;20444;-67
2023/10/26 06:21:34;;;;;;;27.77;11.40;;;;;;;6.51;100.00;99520.41;4933945;29;20043;-64
2023/10/26 06:23:59;;;;;;;28.70;10.57;;;;;;;6.52;100.00;99522.81;4934006;29;20042;-68
2023/10/26 06:26:24;;;;;;;30.52;10.65;;;;;;;6.56;100.00;99528.50;4933734;29;20036;-67
2023/10/26 06:28:50;;;;;;;31.33;11.05;;;;;;;6.55;100.00;99530.44;4934599;29;20059;-68
2023/10/26 06:31:15;;;;;;;38.22;13.00;;;;;;;6.58;100.00;99529.00;4951052;28;20043;-67
2023/10/26 06:33:42;;;;;;;33.15;11.65;;;;;;;6.61;100.00;99522.06;4950996;28;20059;-67
2023/10/26 06:36:10;;;;;;;36.85;12.32;;;;;;;6.61;100.00;99519.31;4946465;28;20054;-67
2023/10/26 06:38:39;;;;;;;34.15;12.27;;;;;;;6.69;100.00;99532.31;4940330;29;20512;-67
2023/10/26 06:41:05;;;;;;;42.05;14.60;;;;;;;6.69;100.00;99526.81;4935665;29;20127;-67
2023/10/26 06:43:30;;;;;;;47.70;13.13;;;;;;;6.71;100.00;99538.31;4939084;28;20108;-69
2023/10/26 06:45:56;;;;;;;37.50;11.95;;;;;;;6.70;100.00;99534.78;4937602;28;20126;-68
2023/10/26 06:48:21;;;;;;;28.20;11.45;;;;;;;6.75;100.00;99533.00;4938233;29;20043;-69
2023/10/26 06:50:47;;;;;;;30.35;11.07;;;;;;;6.78;100.00;99530.44;4933901;29;20031;-67
2023/10/26 06:53:13;;;;;;;35.35;12.73;;;;;;;6.83;100.00;99532.25;4946258;28;20126;-67
2023/10/26 06:55:39;;;;;;;32.50;12.10;;;;;;;6.85;100.00;99521.75;4942928;28;20121;-68
2023/10/26 06:58:04;;;;;;;40.63;12.63;;;;;;;6.92;100.00;99533.13;4941026;29;20111;-68
2023/10/26 07:00:31;;;;;;;43.05;15.30;;;;;;;6.95;100.00;99526.16;4940997;29;20146;-67
2023/10/26 07:02:57;;;;;;;75.43;15.63;;;;;;;6.97;100.00;99529.41;4943675;28;20078;-67
2023/10/26 07:05:22;;;;;;;69.93;13.98;;;;;;;6.97;100.00;99521.16;4941001;29;20455;-67
2023/10/26 07:07:47;;;;;;;49.53;13.10;;;;;;;7.03;100.00;99523.47;4945584;29;20055;-69
2023/10/26 07:10:18;;;;;;;62.33;14.00;;;;;;;7.03;100.00;99523.47;4932447;29;20463;-67
2023/10/26 07:12:44;;;;;;;80.50;15.30;;;;;;;7.06;100.00;99522.03;4940844;29;20095;-67
2023/10/26 07:15:10;;;;;;;51.10;15.25;;;;;;;7.11;100.00;99504.59;4947882;29;20082;-67
2023/10/26 07:17:35;;;;;;;72.93;14.95;;;;;;;7.15;100.00;99506.38;4940708;28;20035;-68
2023/10/26 07:20:03;;;;;;;90.43;15.77;;;;;;;7.12;100.00;99514.47;4939833;29;20066;-68
2023/10/26 07:22:28;;;;;;;83.63;15.60;;;;;;;7.12;100.00;99525.47;4938477;29;20043;-68
2023/10/26 07:24:53;;;;;;;48.20;13.30;;;;;;;7.14;100.00;99518.50;4948266;28;20125;-68
2023/10/26 07:27:19;;;;;;;55.05;13.32;;;;;;;7.20;100.00;99526.66;4933875;29;20127;-67
2023/10/26 07:29:46;;;;;;;66.60;14.02;;;;;;;7.20;100.00;99527.44;4937501;28;20031;-67
2023/10/26 07:32:11;;;;;;;50.95;13.85;;;;;;;7.23;100.00;99521.31;4950864;28;20115;-68
2023/10/26 07:34:37;;;;;;;75.95;14.88;;;;;;;7.29;100.00;99525.56;4951058;28;20114;-67
2023/10/26 07:37:02;;;;;;;62.15;16.58;;;;;;;7.30;100.00;99520.88;4951127;28;20051;-69
2023/10/26 07:39:27;;;;;;;65.15;14.95;;;;;;;7.33;100.00;99512.78;4951353;29;20038;-68
2023/10/26 07:41:53;;;;;;;81.35;14.85;;;;;;;7.36;100.00;99507.78;4951276;29;20755;-67
2023/10/26 07:44:18;;;;;;;62.78;14.25;;;;;;;7.44;100.00;99502.31;4951444;28;20034;-68
2023/10/26 07:46:44;;;;;;;75.28;15.32;;;;;;;7.47;100.00;99504.44;4950734;28;20036;-68
2023/10/26 07:49:09;;;;;;;61.60;14.95;;;;;;;7.54;100.00;99500.41;4951227;28;20099;-69
2023/10/26 07:51:34;;;;;;;41.78;14.82;;;;;;;7.63;100.00;99510.31;4949562;29;20559;-68
2023/10/26 07:53:59;;;;;;;67.80;15.15;;;;;;;7.62;100.00;99511.44;4950804;28;20087;-68
2023/10/26 07:56:25;;;;;;;50.10;14.70;;;;;;;7.73;100.00;99511.16;4948167;29;20844;-68
2023/10/26 07:58:51;;;;;;;48.75;13.93;;;;;;;7.81;100.00;99529.63;4949961;28;20819;-68
2023/10/26 08:01:16;;;;;;;46.55;14.25;;;;;;;7.83;100.00;99521.88;4950218;29;20031;-68
2023/10/26 08:03:41;;;;;;;44.03;13.88;;;;;;;7.81;100.00;99518.63;4950322;28;20035;-69
2023/10/26 08:06:09;;;;;;;38.08;13.43;;;;;;;7.90;100.00;99533.22;4950824;28;20325;-68
2023/10/26 08:08:35;;;;;;;42.72;13.50;;;;;;;8.00;100.00;99534.84;4950888;28;20412;-69
2023/10/26 08:11:10;;;;;;;32.03;11.90;;;;;;;8.05;100.00;99536.63;4950975;28;20031;-68
2023/10/26 08:13:36;;;;;;;41.90;12.93;;;;;;;8.04;100.00;99535.00;4950908;28;20502;-68
2023/10/26 08:16:01;;;;;;;37.70;13.13;;;;;;;8.12;100.00;99540.56;4950971;28;20066;-68
2023/10/26 08:18:26;;;;;;;36.33;11.35;;;;;;;8.17;100.00;99545.09;4951110;29;20027;-68
2023/10/26 08:20:52;;;;;;;45.50;12.68;;;;;;;8.17;100.00;99542.34;4950791;28;20046;-67
2023/10/26 08:23:18;;;;;;;42.47;12.70;;;;;;;8.14;100.00;99540.22;4950301;28;20027;-67
2023/10/26 08:25:43;;;;;;;34.17;12.00;;;;;;;8.12;100.00;99537.00;4949834;28;20145;-67
2023/10/26 08:28:08;;;;;;;30.48;11.50;;;;;;;8.20;100.00;99547.22;4940722;29;20059;-68
2023/10/26 08:30:34;;;;;;;32.42;12.25;;;;;;;8.23;100.00;99557.56;4944917;29;20094;-68
2023/10/26 08:33:04;;;;;;;44.95;12.82;;;;;;;8.23;100.00;99567.78;4950150;28;20033;-68
2023/10/26 08:35:29;;;;;;;38.97;12.07;;;;;;;8.28;100.00;99567.63;4950327;28;20030;-68
2023/10/26 08:37:55;;;;;;;36.45;11.95;;;;;;;8.31;100.00;99563.44;4950691;28;20499;-68
2023/10/26 08:40:20;;;;;;;46.90;13.07;;;;;;;8.34;100.00;99562.78;4950607;29;20031;-68
2023/10/26 08:42:46;;;;;;;31.80;11.52;;;;;;;8.40;100.00;99567.00;4950361;29;20054;-67
2023/10/26 08:45:20;;;;;;;35.17;12.95;;;;;;;8.46;100.00;99565.72;4950092;28;20035;-67
2023/10/26 08:47:48;;;;;;;60.38;14.23;;;;;;;8.21;100.00;99548.84;4950125;28;20133;-68
2023/10/26 08:50:14;;;;;;;37.65;11.23;;;;;;;8.23;100.00;99560.31;4949200;28;20176;-68
2023/10/26 08:52:40;;;;;;;49.83;12.65;;;;;;;8.22;100.00;99558.69;4951093;28;20123;-69
2023/10/26 08:55:07;;;;;;;38.08;12.43;;;;;;;8.27;100.00;99560.50;4949525;28;20419;-68
2023/10/26 08:57:33;;;;;;;44.45;11.55;;;;;;;8.25;100.00;99547.03;4949851;28;20027;-67
2023/10/26 08:59:59;;;;;;;45.72;11.90;;;;;;;8.23;100.00;99554.03;4949933;29;20024;-68
2023/10/26 09:02:24;;;;;;;99.55;14.07;;;;;;;8.14;100.00;99548.47;4950195;28;20050;-67
2023/10/26 09:05:08;;;;;;;49.50;11.15;;;;;;;8.20;100.00;99558.25;4949364;28;20444;-66
2023/10/26 09:07:34;;;;;;;38.95;11.13;;;;;;;8.32;100.00;99554.84;4949405;28;20066;-67
2023/10/26 09:10:00;;;;;;;74.53;13.55;;;;;;;8.32;100.00;99552.09;4950810;28;20031;-67
2023/10/26 09:12:25;;;;;;;48.05;11.65;;;;;;;8.34;100.00;99546.25;4951441;28;20055;-68
2023/10/26 09:15:06;;;;;;;66.38;12.45;;;;;;;8.37;100.00;99543.66;4951607;28;20523;-68
2023/10/26 09:17:32;;;;;;;30.50;11.85;;;;;;;8.50;100.00;99549.38;4951043;28;20027;-67
2023/10/26 09:20:13;;;;;;;36.20;11.45;;;;;;;8.57;100.00;99549.69;4950930;28;20027;-67
2023/10/26 09:22:40;;;;;;;69.35;13.15;;;;;;;8.59;100.00;99544.66;4950989;28;20118;-68
2023/10/26 09:25:10;;;;;;;57.80;11.75;;;;;;;8.66;100.00;99535.91;4951054;28;20133;-69
2023/10/26 09:27:36;;;;;;;40.92;11.15;;;;;;;8.83;100.00;99524.84;4951331;28;20114;-68
2023/10/26 09:30:02;;;;;;;37.40;11.50;;;;;;;9.01;100.00;99519.31;4951038;28;20051;-68
2023/10/26 09:32:32;;;;;;;38.53;10.90;;;;;;;9.20;100.00;99530.78;4951072;28;20496;-68
2023/10/26 09:34:59;;;;;;;45.53;11.45;;;;;;;9.26;100.00;99536.13;4951044;28;20024;-68
2023/10/26 09:37:24;;;;;;;62.45;12.13;;;;;;;9.25;100.00;99537.28;4951038;28;20109;-68
2023/10/26 09:39:50;;;;;;;34.67;9.95;;;;;;;9.26;100.00;99536.13;4950406;28;20114;-68
2023/10/26 09:42:16;;;;;;;29.92;9.73;;;;;;;9.28;100.00;99537.41;4950772;29;20066;-68
2023/10/26 09:44:41;;;;;;;32.55;9.93;;;;;;;9.41;100.00;99529.25;4950261;28;20335;-68
2023/10/26 09:47:08;;;;;;;31.45;11.88;;;;;;;9.51;100.00;99532.47;4946860;29;20035;-68
2023/10/26 09:49:33;;;;;;;29.08;11.57;;;;;;;9.57;100.00;99530.34;4938383;29;20043;-69
2023/10/26 09:51:59;;;;;;;28.50;10.10;;;;;;;9.58;100.00;99518.16;4941483;28;20045;-68
2023/10/26 09:54:45;;;;;;;25.73;10.40;;;;;;;9.71;100.00;99518.22;4932039;29;20055;-69
2023/10/26 09:57:13;;;;;;;26.58;10.13;;;;;;;9.80;100.00;99519.81;4935385;29;20032;-69
2023/10/26 09:59:38;;;;;;;26.58;9.95;;;;;;;9.82;100.00;99519.47;4931334;29;20039;-68
2023/10/26 10:02:17;;;;;;;24.42;10.23;;;;;;;9.85;100.00;99524.34;4931205;29;20027;-68
2023/10/26 10:04:44;;;;;;;25.20;10.27;;;;;;;9.82;100.00;99527.75;4931297;29;20043;-70
2023/10/26 10:07:15;;;;;;;27.92;11.45;;;;;;;9.83;100.00;99523.84;4931604;29;20122;-70
2023/10/26 10:10:02;;;;;;;24.55;10.13;;;;;;;9.82;100.00;99528.56;4931044;29;20559;-70
2023/10/26 10:12:27;;;;;;;25.23;10.45;;;;;;;9.74;100.00;99531.38;4931404;29;20049;-69
2023/10/26 10:14:57;;;;;;;25.27;9.95;;;;;;;9.67;100.00;99535.47;4931423;29;20448;-69
2023/10/26 10:17:45;;;;;;;26.10;10.57;;;;;;;9.62;100.00;99530.13;4941841;28;20519;-68
2023/10/26 10:20:13;;;;;;;24.10;10.00;;;;;;;9.57;100.00;99533.09;4931034;29;20073;-68
2023/10/26 10:22:48;;;;;;;24.45;9.73;;;;;;;9.62;100.00;99529.34;4940147;29;20106;-69
2023/10/26 10:25:17;;;;;;;25.48;10.70;;;;;;;9.52;100.00;99523.03;4947589;29;20083;-68
2023/10/26 10:27:48;;;;;;;24.40;10.60;;;;;;;9.54;100.00;99527.44;4950979;29;20566;-68
2023/10/26 10:30:16;;;;;;;23.83;9.60;;;;;;;9.62;100.00;99523.81;4956456;29;20477;-69
2023/10/26 10:32:44;;;;;;;26.50;11.38;;;;;;;9.68;100.00;99523.25;4953531;29;20113;-68
2023/10/26 10:35:22;;;;;;;26.92;12.07;;;;;;;9.74;100.00;99520.34;4953668;28;20066;-67
2023/10/26 10:38:18;;;;;;;26.02;11.88;;;;;;;9.71;100.00;99502.47;4953464;29;20110;-68
2023/10/26 10:40:55;;;;;;;26.63;11.75;;;;;;;9.65;100.00;99490.81;4953412;28;20023;-67
2023/10/26 10:43:46;;;;;;;26.83;12.00;;;;;;;9.67;100.00;99493.22;4953085;28;20042;-68
2023/10/26 10:46:23;;;;;;;26.48;12.10;;;;;;;9.77;100.00;99490.09;4953064;28;20117;-69
2023/10/26 10:48:57;;;;;;;27.63;11.93;;;;;;;9.89;100.00;99485.81;4953132;28;20130;-68
2023/10/26 10:51:26;;;;;;;27.95;12.02;;;;;;;9.96;100.00;99486.06;4953212;28;20046;-68
2023/10/26 10:53:52;;;;;;;26.85;11.70;;;;;;;10.02;100.00;99486.69;4953952;28;20038;-67
2023/10/26 10:56:18;;;;;;;27.05;12.23;;;;;;;10.06;100.00;99477.41;4953165;29;20040;-69
2023/10/26 10:58:44;;;;;;;28.63;13.10;;;;;;;10.15;100.00;99482.88;4953672;29;20059;-68
2023/10/26 11:01:09;;;;;;;26.77;12.27;;;;;;;10.15;100.00;99475.38;4953742;28;20113;-68
2023/10/26 11:03:35;;;;;;;29.92;14.43;;;;;;;10.10;100.00;99477.53;4953202;28;20362;-68
2023/10/26 11:06:00;;;;;;;29.23;14.43;;;;;;;10.07;100.00;99472.66;4951489;28;20027;-67
2023/10/26 11:08:25;;;;;;;29.48;13.90;;;;;;;10.08;100.00;99464.06;4953358;28;20507;-68
2023/10/26 11:10:51;;;;;;;30.38;14.57;;;;;;;10.07;100.00;99465.19;4953209;28;20503;-69
2023/10/26 11:13:21;;;;;;;30.92;14.25;;;;;;;10.10;100.00;99459.00;4953244;28;20023;-69